岡山グライダークラブ活動状況掲示板あなたは無料カウンター人目の訪問者です

岡山グライダークラブ
岡山市浦安南町639-1 岡南飛行場
 使用機:シャイベ式 SF25C型 ファルケ   JA2330
      ヴァレンティン式17E型 タイフーン  JA2342
 練習日:毎日曜日  クラブルーム:電話 086-265-1810
この掲示板は岡山グライダークラブの活動状況をお知らせする掲示板です。
!!!この掲示板は投稿規制をしています。!!!
クラブ関連各種情報は 岡山グライダークラブクラブルーム      を       .
  ブリーフイング情報は  岡山グライダークラブブリーフィングルーム  をご覧下さい。 .
※写真はクリックすると拡大して見ることが出来ます。
岡南飛行場へのアクセス等は 岡南飛行場管理事務所 をご覧ください。
クラブの ホームページ ができました。

 
01月19日
by OGC at 2020/1/19(日) 20:44:37 No.20200119203725  削除コメント
1024 x 768 x 85,523バイト
No.1

01月19日
本日の参加者
  会員      14名
  その他      0名


@本日の様子





METAR
RJBK 190000Z VRB01KT 30KM FEW030CU BKN/// 03/M00 Q1018 A3008
RJOB 190000Z VRB02KT 9999 FEW020 SCT/// 05/00 Q1017
RJOT 190000Z 13005KT 070V190 9999 FEW025 SCT/// 05/M01 Q1017
RJOA 190000Z VRB01KT CAVOK 05/M03 Q1017
TAF
RJOB 182309Z 1900/2006 23006KT 9999 FEW020 SCT045
RJOT 182307Z 1900/2006 13005KT 9999 FEW030 SCT060
         BECMG 1902/1904 22006KT
RJOA 182305Z 1900/2006 13004KT 9999 FEW020 SCT040
         BECMG 1902/1904 30007K

本日は風が弱く絶好の着陸練習日和。ファルケはいつも通りTGLや滑空訓練
を行い、タイフーンはNAV訓練や岡山空港へ行っていました。

解散    17:40

1番機  10:15離陸 撤収機  17:10着陸 

SF25C JA2330 ファルケ     12Flt.3h50min  
17E   JA2342 タイフーン    05Flt.1h50min  
合計                    17Flt.5h40min

    << 戻る || ホームページ || 最新の掲示板へ